Time;durP1;ratioP1;P1;durP2;ratioP2;P2;SDS_P1;SDS_P2;PMS_P1;PMS_P2;Temp;Humidity;BMP_temperature;BMP_pressure;BME280_temperature;BME280_humidity;BME280_pressure;Samples;Min_cycle;Max_cycle;Signal;HPM_P1;HPM_P2
2022/01/08 00:00:53;;;;;;;6.63;5.90;;;;;;;;;;6142868;23;20063;-45
2022/01/08 00:03:19;;;;;;;6.78;6.07;;;;;;;;;;6143814;23;20059;-47
2022/01/08 00:05:44;;;;;;;9.90;6.55;;;;;;;;;;6144627;23;20467;-45
2022/01/08 00:08:09;;;;;;;6.97;6.28;;;;;;;;;;6143542;23;20029;-44
2022/01/08 00:10:34;;;;;;;5.97;5.28;;;;;;;;;;6144328;23;20018;-44
2022/01/08 00:13:04;;;;;;;6.78;5.60;;;;;;;;;;6144145;23;20016;-45
2022/01/08 00:15:29;;;;;;;7.30;5.78;;;;;;;;;;6144266;23;21070;-46
2022/01/08 00:17:54;;;;;;;6.00;5.38;;;;;;;;;;6144082;23;20033;-46
2022/01/08 00:20:19;;;;;;;6.35;5.47;;;;;;;;;;6141635;23;20018;-45
2022/01/08 00:22:45;;;;;;;6.82;5.70;;;;;;;;;;6142167;23;20005;-49
2022/01/08 00:25:10;;;;;;;6.15;5.55;;;;;;;;;;6146943;23;20014;-47
2022/01/08 00:27:36;;;;;;;7.50;6.38;;;;;;;;;;6146854;23;20095;-45
2022/01/08 00:30:01;;;;;;;9.73;7.10;;;;;;;;;;6147552;23;20444;-46
2022/01/08 00:32:26;;;;;;;7.35;6.65;;;;;;;;;;6146143;23;20020;-46
2022/01/08 00:34:52;;;;;;;6.90;5.55;;;;;;;;;;6147107;23;20456;-46
2022/01/08 00:37:17;;;;;;;6.25;5.65;;;;;;;;;;6147216;23;20002;-44
2022/01/08 00:39:44;;;;;;;7.68;5.75;;;;;;;;;;6146613;23;20673;-46
2022/01/08 00:42:09;;;;;;;5.80;5.22;;;;;;;;;;6145917;23;20560;-43
2022/01/08 00:44:35;;;;;;;8.68;6.18;;;;;;;;;;6147675;23;20006;-45
2022/01/08 00:47:00;;;;;;;5.78;5.20;;;;;;;;;;6145090;23;20089;-47
2022/01/08 00:49:25;;;;;;;6.90;5.47;;;;;;;;;;6146950;23;20640;-45
2022/01/08 00:51:51;;;;;;;8.52;4.88;;;;;;;;;;6146907;23;20452;-46
2022/01/08 00:54:16;;;;;;;5.07;4.60;;;;;;;;;;6146774;23;20013;-45
2022/01/08 00:56:42;;;;;;;6.55;5.15;;;;;;;;;;6147261;23;20497;-45
2022/01/08 00:59:07;;;;;;;6.85;6.10;;;;;;;;;;6147089;23;20017;-45
2022/01/08 01:01:32;;;;;;;6.65;4.85;;;;;;;;;;6146183;23;20352;-46
2022/01/08 01:03:58;;;;;;;8.85;6.43;;;;;;;;;;6147377;23;20106;-45
2022/01/08 01:06:23;;;;;;;7.13;5.50;;;;;;;;;;6146034;23;20504;-47
2022/01/08 01:08:49;;;;;;;7.72;5.22;;;;;;;;;;6147713;23;20104;-44
2022/01/08 01:11:14;;;;;;;5.15;4.28;;;;;;;;;;6146185;23;20032;-47
2022/01/08 01:13:39;;;;;;;5.53;4.50;;;;;;;;;;6145651;23;20499;-46
2022/01/08 01:16:04;;;;;;;6.93;4.40;;;;;;;;;;6146365;23;20072;-50
2022/01/08 01:18:30;;;;;;;5.45;4.13;;;;;;;;;;6146514;23;20012;-49
2022/01/08 01:20:55;;;;;;;5.95;4.32;;;;;;;;;;6146516;23;20424;-46
2022/01/08 01:23:28;;;;;;;5.40;3.95;;;;;;;;;;6146793;23;20330;-47
2022/01/08 01:25:59;;;;;;;4.50;3.50;;;;;;;;;;6146831;23;20035;-47
2022/01/08 01:49:20;;;;;;;3.53;3.05;;;;;;;;;;6146052;23;20129;-44
2022/01/08 01:51:45;;;;;;;3.08;2.83;;;;;;;;;;6146817;23;20088;-47
2022/01/08 01:54:11;;;;;;;4.30;3.00;;;;;;;;;;6146293;23;20452;-44
2022/01/08 01:56:36;;;;;;;5.22;3.38;;;;;;;;;;6146570;23;20020;-46
2022/01/08 01:59:02;;;;;;;6.47;3.38;;;;;;;;;;6146963;23;20037;-46
2022/01/08 02:01:27;;;;;;;3.60;2.90;;;;;;;;;;6145750;23;20016;-47
2022/01/08 02:03:53;;;;;;;2.40;2.20;;;;;;;;;;6147039;23;20036;-46
2022/01/08 02:06:19;;;;;;;2.80;2.42;;;;;;;;;;6145783;23;20022;-46
2022/01/08 02:08:44;;;;;;;5.93;2.65;;;;;;;;;;6146748;23;20021;-46
2022/01/08 02:11:09;;;;;;;5.80;2.22;;;;;;;;;;6145711;23;20563;-42
2022/01/08 02:13:35;;;;;;;4.03;3.08;;;;;;;;;;6145786;23;20002;-45
2022/01/08 02:16:01;;;;;;;2.70;2.42;;;;;;;;;;6145807;23;20020;-46
2022/01/08 02:18:27;;;;;;;2.38;2.10;;;;;;;;;;6145865;23;20071;-46
2022/01/08 02:20:56;;;;;;;3.20;2.58;;;;;;;;;;6145962;23;20433;-46
2022/01/08 02:23:22;;;;;;;3.03;2.28;;;;;;;;;;6146088;23;20013;-45
2022/01/08 02:25:47;;;;;;;3.60;2.50;;;;;;;;;;6145164;23;20020;-46
2022/01/08 02:28:13;;;;;;;4.28;2.47;;;;;;;;;;6145695;23;20033;-54
2022/01/08 02:30:38;;;;;;;3.35;2.13;;;;;;;;;;6145818;23;20531;-45
2022/01/08 02:33:03;;;;;;;3.33;2.60;;;;;;;;;;6146629;23;20009;-45
2022/01/08 02:35:29;;;;;;;3.85;2.50;;;;;;;;;;6145936;23;20013;-45
2022/01/08 02:37:54;;;;;;;4.88;2.50;;;;;;;;;;6146652;23;20321;-45
2022/01/08 02:40:20;;;;;;;4.28;2.75;;;;;;;;;;6145118;23;20016;-45
2022/01/08 02:42:59;;;;;;;4.95;1.98;;;;;;;;;;6144275;23;20064;-45
2022/01/08 02:45:24;;;;;;;4.38;2.35;;;;;;;;;;6145630;23;20006;-45
2022/01/08 02:47:50;;;;;;;2.83;2.63;;;;;;;;;;6146444;23;20006;-46
2022/01/08 02:50:15;;;;;;;2.75;2.10;;;;;;;;;;6145888;23;20017;-49
2022/01/08 02:52:42;;;;;;;10.60;2.40;;;;;;;;;;6146436;23;20010;-47
2022/01/08 02:55:07;;;;;;;2.38;1.95;;;;;;;;;;6146028;23;20092;-45
2022/01/08 02:57:33;;;;;;;2.83;2.00;;;;;;;;;;6145474;23;20040;-45
2022/01/08 02:59:58;;;;;;;3.50;1.95;;;;;;;;;;6145554;23;20010;-45
2022/01/08 03:02:23;;;;;;;5.00;1.75;;;;;;;;;;6146226;23;20184;-45
2022/01/08 03:04:49;;;;;;;2.88;2.15;;;;;;;;;;6145861;23;20010;-45
2022/01/08 03:07:14;;;;;;;2.95;2.00;;;;;;;;;;6144037;23;20031;-44
2022/01/08 03:09:41;;;;;;;2.97;1.80;;;;;;;;;;6145297;23;20084;-46
2022/01/08 03:12:07;;;;;;;2.75;1.70;;;;;;;;;;6146674;23;20037;-45
2022/01/08 03:14:33;;;;;;;1.70;1.60;;;;;;;;;;6145363;23;20010;-46
2022/01/08 03:16:58;;;;;;;4.03;2.33;;;;;;;;;;6146369;23;20020;-46
2022/01/08 03:19:23;;;;;;;5.72;1.83;;;;;;;;;;6145591;23;20373;-47
2022/01/08 03:21:52;;;;;;;8.02;2.25;;;;;;;;;;6145828;23;20524;-48
2022/01/08 03:24:25;;;;;;;2.47;1.57;;;;;;;;;;6145697;23;20020;-48
2022/01/08 03:26:51;;;;;;;1.60;1.50;;;;;;;;;;6145905;23;20085;-48
2022/01/08 03:29:16;;;;;;;6.65;1.52;;;;;;;;;;6145500;23;20320;-45
2022/01/08 03:31:41;;;;;;;5.20;1.80;;;;;;;;;;6145500;23;20648;-48
2022/01/08 03:34:06;;;;;;;4.80;2.17;;;;;;;;;;6145952;23;20441;-46
2022/01/08 03:36:32;;;;;;;2.97;1.48;;;;;;;;;;6144684;23;20080;-45
2022/01/08 03:38:57;;;;;;;2.10;1.45;;;;;;;;;;6148482;23;20015;-44
2022/01/08 03:41:23;;;;;;;3.85;1.40;;;;;;;;;;6146902;23;20440;-45
2022/01/08 03:43:49;;;;;;;4.15;2.10;;;;;;;;;;6147910;23;20441;-45
2022/01/08 03:46:14;;;;;;;4.40;2.55;;;;;;;;;;6146999;23;20081;-45
2022/01/08 03:51:07;;;;;;;4.32;1.63;;;;;;;;;;6147613;23;20022;-45
2022/01/08 03:53:33;;;;;;;5.63;2.75;;;;;;;;;;6147162;23;20040;-47
2022/01/08 03:55:58;;;;;;;3.10;1.50;;;;;;;;;;6147525;23;20005;-45
2022/01/08 03:58:25;;;;;;;2.22;1.70;;;;;;;;;;6147329;23;20016;-45
2022/01/08 04:00:50;;;;;;;2.45;1.55;;;;;;;;;;6147149;23;20103;-45
2022/01/08 04:03:18;;;;;;;4.15;1.77;;;;;;;;;;6147326;23;20017;-46
2022/01/08 04:05:45;;;;;;;2.67;2.22;;;;;;;;;;6147129;23;20024;-46
2022/01/08 04:08:10;;;;;;;1.98;1.38;;;;;;;;;;6146975;23;20041;-45
2022/01/08 04:10:36;;;;;;;4.93;1.92;;;;;;;;;;6147090;23;20036;-45
2022/01/08 04:13:08;;;;;;;2.42;2.05;;;;;;;;;;6147689;23;20352;-45
2022/01/08 04:15:37;;;;;;;3.38;1.52;;;;;;;;;;6146805;23;20024;-45
2022/01/08 04:18:02;;;;;;;2.10;1.55;;;;;;;;;;6147416;23;20021;-45
2022/01/08 04:20:28;;;;;;;2.88;1.95;;;;;;;;;;6144957;23;20013;-46
2022/01/08 04:22:53;;;;;;;3.55;1.45;;;;;;;;;;6148100;23;20009;-48
2022/01/08 04:25:20;;;;;;;6.22;1.88;;;;;;;;;;6146249;23;20010;-46
2022/01/08 04:27:45;;;;;;;3.15;1.70;;;;;;;;;;6147708;23;20009;-45
2022/01/08 04:30:11;;;;;;;6.18;1.98;;;;;;;;;;6146074;23;20037;-47
2022/01/08 04:32:36;;;;;;;2.88;1.73;;;;;;;;;;6147425;23;20064;-47
2022/01/08 04:35:02;;;;;;;2.85;1.52;;;;;;;;;;6147066;23;20427;-45
2022/01/08 04:37:27;;;;;;;4.32;1.95;;;;;;;;;;6146944;23;20013;-46
2022/01/08 04:39:53;;;;;;;7.10;3.00;;;;;;;;;;6146826;23;20443;-46
2022/01/08 04:42:18;;;;;;;7.20;2.15;;;;;;;;;;6146645;23;20024;-46
2022/01/08 04:44:43;;;;;;;6.07;2.00;;;;;;;;;;6147765;23;20010;-46
2022/01/08 04:47:09;;;;;;;4.38;2.05;;;;;;;;;;6146530;23;20013;-44
2022/01/08 04:49:34;;;;;;;6.72;2.10;;;;;;;;;;6146724;23;20014;-45
2022/01/08 04:51:59;;;;;;;3.80;2.00;;;;;;;;;;6147662;23;20097;-45
2022/01/08 04:54:24;;;;;;;5.65;1.95;;;;;;;;;;6146014;23;20018;-47
2022/01/08 04:56:50;;;;;;;4.80;1.83;;;;;;;;;;6147505;23;20006;-48
2022/01/08 04:59:16;;;;;;;8.77;2.25;;;;;;;;;;6145729;23;20022;-46
2022/01/08 05:01:41;;;;;;;5.93;2.10;;;;;;;;;;6145698;23;20515;-47
2022/01/08 05:04:07;;;;;;;3.75;1.95;;;;;;;;;;6144913;23;20092;-45
2022/01/08 05:06:32;;;;;;;4.45;2.15;;;;;;;;;;6146499;23;20010;-46
2022/01/08 05:08:57;;;;;;;6.25;1.58;;;;;;;;;;6146339;23;20379;-46
2022/01/08 05:11:23;;;;;;;3.17;1.90;;;;;;;;;;6146726;23;20021;-46
2022/01/08 05:13:50;;;;;;;6.95;2.08;;;;;;;;;;6146794;23;20020;-46
2022/01/08 05:16:15;;;;;;;4.93;2.13;;;;;;;;;;6146342;23;20012;-47
2022/01/08 05:18:40;;;;;;;5.82;2.35;;;;;;;;;;6146261;23;20206;-46
2022/01/08 05:21:16;;;;;;;7.88;2.80;;;;;;;;;;6146663;23;20017;-46
2022/01/08 05:23:41;;;;;;;4.03;1.90;;;;;;;;;;6146144;23;20444;-47
2022/01/08 05:26:07;;;;;;;4.03;2.08;;;;;;;;;;6147173;23;20013;-45
2022/01/08 05:28:32;;;;;;;9.98;2.60;;;;;;;;;;6145726;23;20017;-48
2022/01/08 05:30:57;;;;;;;8.00;2.70;;;;;;;;;;6146872;23;20023;-45
2022/01/08 05:33:22;;;;;;;9.00;4.13;;;;;;;;;;6144806;23;20052;-50
2022/01/08 05:35:47;;;;;;;4.65;3.30;;;;;;;;;;6147409;23;20040;-48
2022/01/08 05:38:13;;;;;;;5.07;2.33;;;;;;;;;;6145568;23;20005;-48
2022/01/08 05:40:38;;;;;;;4.65;2.53;;;;;;;;;;6146952;23;20041;-45
2022/01/08 05:43:03;;;;;;;14.48;2.85;;;;;;;;;;6146209;23;20108;-46
2022/01/08 05:45:29;;;;;;;6.85;3.03;;;;;;;;;;6145947;23;20096;-45
2022/01/08 05:47:54;;;;;;;10.75;2.92;;;;;;;;;;6146549;23;20570;-48
2022/01/08 05:50:19;;;;;;;4.05;2.80;;;;;;;;;;6146000;23;20130;-46
2022/01/08 05:52:44;;;;;;;10.98;2.88;;;;;;;;;;6145979;23;20006;-46
2022/01/08 05:55:10;;;;;;;5.78;2.60;;;;;;;;;;6146191;23;20475;-48
2022/01/08 05:57:35;;;;;;;8.88;3.15;;;;;;;;;;6146439;23;20017;-47
2022/01/08 06:00:01;;;;;;;5.72;3.30;;;;;;;;;;6146295;23;20009;-47
2022/01/08 06:02:27;;;;;;;9.48;3.03;;;;;;;;;;6144976;23;20041;-46
2022/01/08 06:04:52;;;;;;;8.45;2.92;;;;;;;;;;6146728;23;20076;-46
2022/01/08 06:07:17;;;;;;;11.02;3.15;;;;;;;;;;6145425;23;20018;-47
2022/01/08 06:09:43;;;;;;;13.55;2.53;;;;;;;;;;6146725;23;20017;-47
2022/01/08 06:12:08;;;;;;;11.55;4.07;;;;;;;;;;6146233;23;20014;-47
2022/01/08 06:14:34;;;;;;;7.25;2.97;;;;;;;;;;6146232;23;20014;-45
2022/01/08 06:16:59;;;;;;;6.60;2.63;;;;;;;;;;6146120;23;20048;-47
2022/01/08 06:19:24;;;;;;;8.70;4.13;;;;;;;;;;6145803;23;20024;-47
2022/01/08 06:21:49;;;;;;;8.05;3.33;;;;;;;;;;6146231;23;20033;-46
2022/01/08 06:24:15;;;;;;;8.25;3.03;;;;;;;;;;6146111;23;20017;-48
2022/01/08 06:26:40;;;;;;;9.32;2.55;;;;;;;;;;6146324;23;20013;-47
2022/01/08 06:29:05;;;;;;;7.60;3.28;;;;;;;;;;6146624;23;20093;-45
2022/01/08 06:31:31;;;;;;;9.70;3.72;;;;;;;;;;6142957;23;20018;-46
2022/01/08 06:33:56;;;;;;;12.85;2.95;;;;;;;;;;6146182;23;20380;-45
2022/01/08 06:36:23;;;;;;;6.85;3.58;;;;;;;;;;6145205;23;20396;-45
2022/01/08 06:38:51;;;;;;;6.43;1.88;;;;;;;;;;6146637;23;20441;-46
2022/01/08 06:41:16;;;;;;;8.15;3.25;;;;;;;;;;6145172;23;20013;-47
2022/01/08 06:43:42;;;;;;;6.18;2.65;;;;;;;;;;6146274;23;20018;-45
2022/01/08 06:46:07;;;;;;;6.55;2.88;;;;;;;;;;6146085;23;20894;-47
2022/01/08 06:48:32;;;;;;;5.22;2.67;;;;;;;;;;6145523;23;20065;-49
2022/01/08 06:50:57;;;;;;;5.03;2.60;;;;;;;;;;6146604;23;20440;-50
2022/01/08 06:53:23;;;;;;;10.45;2.60;;;;;;;;;;6145446;23;20013;-50
2022/01/08 06:55:48;;;;;;;7.15;2.40;;;;;;;;;;6146214;23;20013;-51
2022/01/08 06:58:14;;;;;;;5.45;2.38;;;;;;;;;;6145326;23;20009;-50
2022/01/08 07:00:39;;;;;;;8.43;3.10;;;;;;;;;;6145866;23;20006;-45
2022/01/08 07:03:09;;;;;;;7.32;2.55;;;;;;;;;;6146594;23;20018;-48
2022/01/08 07:05:34;;;;;;;5.63;2.65;;;;;;;;;;6145667;23;20005;-46
2022/01/08 07:08:00;;;;;;;7.47;3.05;;;;;;;;;;6146514;23;20100;-47
2022/01/08 07:10:25;;;;;;;2.97;2.28;;;;;;;;;;6146330;23;20022;-49
2022/01/08 07:12:50;;;;;;;6.22;1.77;;;;;;;;;;6148151;23;20318;-46
2022/01/08 07:15:16;;;;;;;7.47;3.20;;;;;;;;;;6146858;23;20085;-46
2022/01/08 07:17:41;;;;;;;7.57;2.65;;;;;;;;;;6147651;23;20009;-46
2022/01/08 07:20:06;;;;;;;5.57;2.53;;;;;;;;;;6147871;23;20056;-46
2022/01/08 07:22:32;;;;;;;4.10;2.40;;;;;;;;;;6145562;23;20316;-48
2022/01/08 07:24:57;;;;;;;6.63;2.22;;;;;;;;;;6148578;23;20445;-47
2022/01/08 07:27:22;;;;;;;5.72;1.83;;;;;;;;;;6146577;23;20085;-45
2022/01/08 07:29:48;;;;;;;6.47;2.85;;;;;;;;;;6147855;23;20013;-46
2022/01/08 07:32:13;;;;;;;7.45;2.33;;;;;;;;;;6146435;23;20647;-47
2022/01/08 07:34:38;;;;;;;11.88;2.83;;;;;;;;;;6148252;23;20016;-45
2022/01/08 07:37:03;;;;;;;6.95;2.60;;;;;;;;;;6147447;23;20021;-48
2022/01/08 07:39:29;;;;;;;9.07;2.63;;;;;;;;;;6147290;23;20780;-44
2022/01/08 07:41:54;;;;;;;3.20;2.30;;;;;;;;;;6146903;23;20009;-46
2022/01/08 07:44:19;;;;;;;9.07;2.53;;;;;;;;;;6147147;23;20015;-48
2022/01/08 07:46:45;;;;;;;7.80;2.70;;;;;;;;;;6148531;23;20076;-51
2022/01/08 07:49:10;;;;;;;8.27;2.60;;;;;;;;;;6146533;23;20005;-49
2022/01/08 07:51:35;;;;;;;7.68;3.10;;;;;;;;;;6148039;23;20005;-47
2022/01/08 07:54:00;;;;;;;9.77;2.53;;;;;;;;;;6147823;23;20508;-46
2022/01/08 07:56:26;;;;;;;9.52;2.40;;;;;;;;;;6146801;23;20080;-46
2022/01/08 07:58:51;;;;;;;10.00;2.20;;;;;;;;;;6147968;23;20020;-48
2022/01/08 08:01:16;;;;;;;7.05;2.60;;;;;;;;;;6146481;23;20017;-47
2022/01/08 08:03:41;;;;;;;7.40;2.20;;;;;;;;;;6147703;23;20014;-46
2022/01/08 08:06:10;;;;;;;4.15;2.45;;;;;;;;;;6147362;23;20424;-45
2022/01/08 08:08:35;;;;;;;3.72;2.03;;;;;;;;;;6146990;23;20021;-48
2022/01/08 08:11:01;;;;;;;6.22;2.72;;;;;;;;;;6147562;23;20132;-45
2022/01/08 08:13:26;;;;;;;5.93;2.20;;;;;;;;;;6146767;23;20908;-46
2022/01/08 08:15:51;;;;;;;6.45;2.00;;;;;;;;;;6146868;23;20010;-46
2022/01/08 08:18:16;;;;;;;4.38;1.67;;;;;;;;;;6146704;23;20105;-48
2022/01/08 08:20:42;;;;;;;7.53;2.78;;;;;;;;;;6148282;23;20013;-46
2022/01/08 08:23:07;;;;;;;6.28;2.25;;;;;;;;;;6146158;23;20005;-46
2022/01/08 08:25:33;;;;;;;7.80;2.30;;;;;;;;;;6147342;23;20033;-47
2022/01/08 08:27:58;;;;;;;8.02;2.80;;;;;;;;;;6146878;23;20762;-45
2022/01/08 08:30:23;;;;;;;4.65;1.70;;;;;;;;;;6146515;23;20184;-47
2022/01/08 08:32:49;;;;;;;11.70;2.45;;;;;;;;;;6146906;23;20005;-45
2022/01/08 08:35:15;;;;;;;3.83;1.75;;;;;;;;;;6147139;23;20040;-47
2022/01/08 08:37:40;;;;;;;4.70;2.15;;;;;;;;;;6147283;23;20056;-46
2022/01/08 08:40:06;;;;;;;4.30;2.25;;;;;;;;;;6147134;23;20348;-45
2022/01/08 08:42:31;;;;;;;3.17;2.85;;;;;;;;;;6146064;23;20010;-46
2022/01/08 08:44:57;;;;;;;2.75;1.92;;;;;;;;;;6147432;23;20072;-46
2022/01/08 08:47:22;;;;;;;2.30;1.35;;;;;;;;;;6146610;23;20016;-46
2022/01/08 08:49:47;;;;;;;4.15;1.63;;;;;;;;;;6147495;23;20025;-49
2022/01/08 08:52:13;;;;;;;8.23;2.08;;;;;;;;;;6146969;23;20051;-46
2022/01/08 08:54:41;;;;;;;2.72;1.23;;;;;;;;;;6146769;23;20041;-47
2022/01/08 08:57:07;;;;;;;3.28;1.48;;;;;;;;;;6147531;23;20081;-48
2022/01/08 08:59:32;;;;;;;8.88;1.60;;;;;;;;;;6145398;23;20049;-44
2022/01/08 09:01:57;;;;;;;5.78;1.60;;;;;;;;;;6147646;23;20060;-50
2022/01/08 09:04:23;;;;;;;2.28;1.95;;;;;;;;;;6145904;23;20444;-46
2022/01/08 09:06:48;;;;;;;3.70;1.40;;;;;;;;;;6147315;23;20018;-45
2022/01/08 09:09:14;;;;;;;4.53;1.42;;;;;;;;;;6145300;23;20044;-44
2022/01/08 09:11:39;;;;;;;2.25;1.23;;;;;;;;;;6147552;23;20020;-46
2022/01/08 09:14:04;;;;;;;4.78;1.35;;;;;;;;;;6146599;23;20080;-48
2022/01/08 09:16:29;;;;;;;4.10;1.27;;;;;;;;;;6146197;23;20010;-47
2022/01/08 09:18:55;;;;;;;1.65;0.90;;;;;;;;;;6147251;23;20017;-45
2022/01/08 09:21:20;;;;;;;2.63;1.30;;;;;;;;;;6146094;23;20014;-45
2022/01/08 09:23:45;;;;;;;2.70;1.20;;;;;;;;;;6146967;23;20005;-46
2022/01/08 09:26:11;;;;;;;2.30;1.45;;;;;;;;;;6141948;23;20013;-47
2022/01/08 09:28:36;;;;;;;1.23;1.05;;;;;;;;;;6145835;23;20456;-47
2022/01/08 09:31:03;;;;;;;3.30;1.20;;;;;;;;;;6147011;23;20032;-46
2022/01/08 09:33:28;;;;;;;3.03;1.65;;;;;;;;;;6145833;23;20096;-46
2022/01/08 09:35:53;;;;;;;3.22;1.13;;;;;;;;;;6146498;23;20405;-48
2022/01/08 09:38:19;;;;;;;1.73;0.75;;;;;;;;;;6144929;23;20002;-44
2022/01/08 09:40:44;;;;;;;4.68;1.27;;;;;;;;;;6144848;23;20016;-46
2022/01/08 09:43:09;;;;;;;1.85;1.13;;;;;;;;;;6146499;23;20016;-45
2022/01/08 09:45:35;;;;;;;3.42;1.08;;;;;;;;;;6146073;23;20118;-48
2022/01/08 09:48:00;;;;;;;4.57;0.90;;;;;;;;;;6147008;23;20013;-46
2022/01/08 09:50:26;;;;;;;3.30;0.77;;;;;;;;;;6146117;23;20452;-46
2022/01/08 09:52:56;;;;;;;1.00;0.68;;;;;;;;;;6144458;23;20017;-44
2022/01/08 09:55:21;;;;;;;2.60;1.42;;;;;;;;;;6146182;23;20483;-43
2022/01/08 09:57:46;;;;;;;2.35;1.15;;;;;;;;;;6146621;23;20011;-47
2022/01/08 10:00:13;;;;;;;6.07;1.05;;;;;;;;;;6145607;23;20520;-46
2022/01/08 10:02:38;;;;;;;3.90;1.02;;;;;;;;;;6147191;23;20033;-47
2022/01/08 10:05:08;;;;;;;1.08;0.60;;;;;;;;;;6146734;23;20618;-49
2022/01/08 10:07:33;;;;;;;4.03;1.05;;;;;;;;;;6146104;23;20025;-48
2022/01/08 10:09:59;;;;;;;3.58;1.00;;;;;;;;;;6146294;23;20028;-48
2022/01/08 10:12:35;;;;;;;2.50;0.90;;;;;;;;;;6146363;23;20076;-46
2022/01/08 10:17:44;;;;;;;1.10;0.75;;;;;;;;;;6146088;23;20068;-45
2022/01/08 10:20:09;;;;;;;2.13;1.15;;;;;;;;;;6145758;23;20381;-47
2022/01/08 10:22:35;;;;;;;2.78;1.17;;;;;;;;;;6147184;23;20037;-45
2022/01/08 10:25:12;;;;;;;1.17;0.57;;;;;;;;;;6145742;23;20017;-45
2022/01/08 10:27:37;;;;;;;2.13;1.38;;;;;;;;;;6145686;23;20017;-46
2022/01/08 10:30:04;;;;;;;2.90;1.30;;;;;;;;;;6146228;23;20032;-46
2022/01/08 10:32:29;;;;;;;2.40;0.65;;;;;;;;;;6145844;23;20531;-44
2022/01/08 10:34:54;;;;;;;1.70;0.68;;;;;;;;;;6144756;23;20033;-46
2022/01/08 10:37:19;;;;;;;2.17;0.90;;;;;;;;;;6145151;23;20017;-44
2022/01/08 10:39:52;;;;;;;2.25;1.45;;;;;;;;;;6146264;23;20089;-44
2022/01/08 10:42:18;;;;;;;1.30;0.75;;;;;;;;;;6145629;23;20108;-44
2022/01/08 10:44:44;;;;;;;4.15;1.10;;;;;;;;;;6146525;23;20029;-44
2022/01/08 10:47:17;;;;;;;2.60;0.80;;;;;;;;;;6147352;23;20102;-44
2022/01/08 10:49:44;;;;;;;2.13;0.95;;;;;;;;;;6148255;23;20492;-45
2022/01/08 10:52:10;;;;;;;2.45;0.70;;;;;;;;;;6148087;23;20009;-44
2022/01/08 10:54:37;;;;;;;0.52;0.52;;;;;;;;;;6148300;23;20033;-45
2022/01/08 10:57:03;;;;;;;2.08;0.90;;;;;;;;;;6147133;23;20581;-44
2022/01/08 10:59:29;;;;;;;1.35;0.70;;;;;;;;;;6142672;23;20100;-45
2022/01/08 11:02:02;;;;;;;2.15;0.90;;;;;;;;;;6145051;23;20108;-45
2022/01/08 11:04:32;;;;;;;1.40;0.60;;;;;;;;;;6143050;23;20041;-45
2022/01/08 11:07:02;;;;;;;2.63;1.17;;;;;;;;;;6143775;23;20025;-45
2022/01/08 11:09:28;;;;;;;3.03;0.93;;;;;;;;;;6145185;23;20045;-46
2022/01/08 11:11:54;;;;;;;2.92;0.75;;;;;;;;;;6144808;23;20025;-46
2022/01/08 11:14:34;;;;;;;0.98;0.47;;;;;;;;;;6145252;23;20402;-45
2022/01/08 11:16:59;;;;;;;;;;;;;;;;;;6145538;23;20456;-44
2022/01/08 11:19:24;;;;;;;1.83;0.73;;;;;;;;;;6145007;23;20307;-45
2022/01/08 11:21:49;;;;;;;1.40;0.80;;;;;;;;;;6144521;23;20326;-44
2022/01/08 11:24:18;;;;;;;0.65;0.65;;;;;;;;;;6144307;23;20014;-45
2022/01/08 11:26:45;;;;;;;0.70;0.70;;;;;;;;;;6145437;23;20013;-45
2022/01/08 11:29:11;;;;;;;1.27;0.50;;;;;;;;;;6145091;23;20006;-43
2022/01/08 11:31:36;;;;;;;1.17;0.40;;;;;;;;;;6144985;23;20852;-45
2022/01/08 11:34:08;;;;;;;0.88;0.65;;;;;;;;;;6145562;23;20077;-47
2022/01/08 11:36:34;;;;;;;4.28;1.55;;;;;;;;;;6143631;23;20013;-44
2022/01/08 11:38:59;;;;;;;1.92;0.70;;;;;;;;;;6145517;23;20345;-45
2022/01/08 11:41:25;;;;;;;1.05;0.50;;;;;;;;;;6144201;23;20042;-44
2022/01/08 11:43:53;;;;;;;0.90;0.70;;;;;;;;;;6145350;23;20037;-45
2022/01/08 11:46:19;;;;;;;2.65;0.60;;;;;;;;;;6142508;23;20072;-45
2022/01/08 11:48:45;;;;;;;1.42;0.60;;;;;;;;;;6145156;23;20435;-46
2022/01/08 11:51:24;;;;;;;0.90;0.60;;;;;;;;;;6143049;23;20108;-44
2022/01/08 11:53:50;;;;;;;1.52;0.50;;;;;;;;;;6147340;23;20060;-45
2022/01/08 11:56:21;;;;;;;1.40;0.82;;;;;;;;;;6145840;23;20012;-44
2022/01/08 11:59:00;;;;;;;1.23;0.50;;;;;;;;;;6148278;23;20013;-45
2022/01/08 12:01:26;;;;;;;0.65;0.65;;;;;;;;;;6146578;23;20209;-44
2022/01/08 12:03:52;;;;;;;0.85;0.85;;;;;;;;;;6147636;23;20346;-44
2022/01/08 12:06:26;;;;;;;1.77;0.60;;;;;;;;;;6146532;23;20084;-45
2022/01/08 12:08:56;;;;;;;0.55;0.55;;;;;;;;;;6147890;23;20089;-47
2022/01/08 12:11:22;;;;;;;0.60;0.60;;;;;;;;;;6145882;23;20040;-46
2022/01/08 12:13:48;;;;;;;0.70;0.65;;;;;;;;;;6148516;23;20415;-50
2022/01/08 12:16:32;;;;;;;1.83;0.60;;;;;;;;;;6146703;23;20018;-43
2022/01/08 12:18:58;;;;;;;1.58;0.47;;;;;;;;;;6147533;23;20088;-45
2022/01/08 12:21:32;;;;;;;1.13;0.60;;;;;;;;;;6147511;23;20029;-46
2022/01/08 12:23:59;;;;;;;0.45;0.40;;;;;;;;;;6147660;23;20016;-46
2022/01/08 12:26:24;;;;;;;0.50;0.30;;;;;;;;;;6147601;23;20006;-45
2022/01/08 12:28:53;;;;;;;2.15;0.60;;;;;;;;;;6147960;23;20048;-44
2022/01/08 12:31:26;;;;;;;1.02;0.52;;;;;;;;;;6146240;23;20025;-44
2022/01/08 12:34:15;;;;;;;1.02;0.50;;;;;;;;;;6147723;23;20006;-44
2022/01/08 12:36:50;;;;;;;0.60;0.50;;;;;;;;;;6146823;23;20010;-45
2022/01/08 12:39:15;;;;;;;2.28;0.60;;;;;;;;;;6145899;23;20037;-48
2022/01/08 12:41:41;;;;;;;0.43;0.40;;;;;;;;;;6147461;23;20005;-44
2022/01/08 12:44:25;;;;;;;0.82;0.50;;;;;;;;;;6147164;23;20500;-45
2022/01/08 12:46:51;;;;;;;2.42;0.60;;;;;;;;;;6147180;23;20032;-45
2022/01/08 12:49:16;;;;;;;1.35;0.70;;;;;;;;;;6144745;23;20500;-45
2022/01/08 12:51:47;;;;;;;0.38;0.38;;;;;;;;;;6147523;23;20017;-45
2022/01/08 12:54:13;;;;;;;0.80;0.50;;;;;;;;;;6145898;23;20017;-46
2022/01/08 12:56:45;;;;;;;1.70;0.60;;;;;;;;;;6147419;23;20086;-45
2022/01/08 12:59:11;;;;;;;0.40;0.40;;;;;;;;;;6146094;23;20475;-45
2022/01/08 13:01:37;;;;;;;1.73;0.63;;;;;;;;;;6145102;23;20018;-45
2022/01/08 13:04:03;;;;;;;0.60;0.60;;;;;;;;;;6144218;23;20440;-46
2022/01/08 13:06:34;;;;;;;4.00;1.05;;;;;;;;;;6144286;23;20120;-46
2022/01/08 13:09:00;;;;;;;1.42;1.15;;;;;;;;;;6145239;23;20014;-45
2022/01/08 13:11:28;;;;;;;3.22;1.08;;;;;;;;;;6146190;23;20446;-45
2022/01/08 13:13:57;;;;;;;1.92;1.05;;;;;;;;;;6147251;23;20013;-44
2022/01/08 13:16:42;;;;;;;3.17;1.80;;;;;;;;;;6147157;23;20466;-46
2022/01/08 13:19:12;;;;;;;5.22;1.17;;;;;;;;;;6145872;23;20009;-44
2022/01/08 13:21:39;;;;;;;2.13;1.30;;;;;;;;;;6146269;23;20037;-44
2022/01/08 13:24:15;;;;;;;5.15;2.33;;;;;;;;;;6145919;23;20010;-45
2022/01/08 13:26:42;;;;;;;6.15;2.78;;;;;;;;;;6145723;23;20036;-45
2022/01/08 13:29:21;;;;;;;6.07;1.60;;;;;;;;;;6146887;23;20052;-45
2022/01/08 13:31:55;;;;;;;3.80;1.50;;;;;;;;;;6146282;23;20368;-45
2022/01/08 13:34:21;;;;;;;3.63;1.95;;;;;;;;;;6146312;23;20009;-44
2022/01/08 13:36:59;;;;;;;5.53;2.40;;;;;;;;;;6146934;23;20013;-46
2022/01/08 13:39:25;;;;;;;4.68;2.13;;;;;;;;;;6145874;23;20085;-46
2022/01/08 13:41:50;;;;;;;6.68;3.55;;;;;;;;;;6147161;23;20021;-45
2022/01/08 13:44:17;;;;;;;5.10;1.90;;;;;;;;;;6145887;23;20009;-45
2022/01/08 13:46:45;;;;;;;7.47;2.88;;;;;;;;;;6144631;23;20006;-46
2022/01/08 13:49:11;;;;;;;10.02;2.20;;;;;;;;;;6144588;23;20014;-45
2022/01/08 13:51:37;;;;;;;5.63;2.70;;;;;;;;;;6145217;23;20089;-45
2022/01/08 13:54:05;;;;;;;16.00;3.25;;;;;;;;;;6145605;23;20014;-44
2022/01/08 13:56:31;;;;;;;7.82;3.42;;;;;;;;;;6146107;23;20013;-45
2022/01/08 13:59:07;;;;;;;15.20;3.17;;;;;;;;;;6146249;23;20005;-45
2022/01/08 14:01:40;;;;;;;11.25;3.92;;;;;;;;;;6145339;23;20013;-45
2022/01/08 14:04:05;;;;;;;5.32;2.47;;;;;;;;;;6144011;23;20012;-45
2022/01/08 14:06:31;;;;;;;11.23;4.28;;;;;;;;;;6143805;23;20017;-47
2022/01/08 14:08:59;;;;;;;7.43;3.00;;;;;;;;;;6146785;23;20013;-46
2022/01/08 14:11:24;;;;;;;11.68;3.55;;;;;;;;;;6143523;23;20486;-49
2022/01/08 14:13:55;;;;;;;13.10;3.10;;;;;;;;;;6144985;23;20138;-46
2022/01/08 14:16:30;;;;;;;11.23;3.45;;;;;;;;;;6145739;23;20466;-46
2022/01/08 14:19:11;;;;;;;6.22;2.40;;;;;;;;;;6146378;23;20084;-48
2022/01/08 14:21:37;;;;;;;10.65;3.47;;;;;;;;;;6145280;23;20641;-46
2022/01/08 14:24:12;;;;;;;9.57;3.58;;;;;;;;;;6146169;23;20340;-49
2022/01/08 14:26:38;;;;;;;6.50;3.20;;;;;;;;;;6146321;23;20040;-46
2022/01/08 14:29:03;;;;;;;6.47;2.25;;;;;;;;;;6146708;23;20017;-47
2022/01/08 14:31:30;;;;;;;8.02;2.67;;;;;;;;;;6145169;23;20026;-45
2022/01/08 14:34:01;;;;;;;4.85;2.53;;;;;;;;;;6146713;23;20044;-49
2022/01/08 14:36:38;;;;;;;10.90;2.85;;;;;;;;;;6145104;23;20020;-48
2022/01/08 14:39:04;;;;;;;7.03;3.10;;;;;;;;;;6145166;23;20033;-46
2022/01/08 14:41:33;;;;;;;10.20;2.85;;;;;;;;;;6145714;23;20021;-43
2022/01/08 14:43:59;;;;;;;6.00;2.78;;;;;;;;;;6144160;23;20020;-46
2022/01/08 14:46:25;;;;;;;8.18;3.17;;;;;;;;;;6144922;23;20006;-45
2022/01/08 14:48:50;;;;;;;4.47;2.30;;;;;;;;;;6143340;23;20089;-45
2022/01/08 14:51:17;;;;;;;8.75;3.30;;;;;;;;;;6141690;23;20013;-44
2022/01/08 14:53:43;;;;;;;11.82;3.50;;;;;;;;;;6143554;23;20009;-44
2022/01/08 14:56:08;;;;;;;14.38;4.10;;;;;;;;;;6142593;23;20063;-45
2022/01/08 14:58:35;;;;;;;10.63;6.00;;;;;;;;;;6141378;23;20452;-45
2022/01/08 15:01:01;;;;;;;14.20;5.72;;;;;;;;;;6142667;23;20021;-46
2022/01/08 15:03:26;;;;;;;13.70;4.75;;;;;;;;;;6142634;23;20021;-46
2022/01/08 15:05:51;;;;;;;9.45;3.45;;;;;;;;;;6142709;23;20009;-44